Meteorología y climatología de Navarra
Datos de la estación - Meteo Navarra

Estación de Urbasa GN

Altitud 886 m.


Datos desde el 12/09/2019 hasta el 13/09/2019 en horario solar
Los datos son PROVISIONALES

Anterior Página 1 de 1 Siguiente Descargar: Formato para Excel 2000 o superior   Formato csv   Formato para OpenOffice Calc
Fecha Temperatura Humedad relativa Radiación global Insolación Precipitación Vel. viento 10 m Vel. viento 10 m Dir. viento 10 m
ºC % W/m² s l/m² m/s km/h º
12/09/2019 0:00 10.7 94 0.0 0 0.0 1.5 5.5 14
12/09/2019 0:10 10.6 94 0.0 0 0.0 1.8 6.4 352
12/09/2019 0:20 10.6 94 0.0 0 0.0 1.6 5.8 344
12/09/2019 0:30 10.5 95 0.0 0 0.0 1.7 5.9 350
12/09/2019 0:40 10.4 95 0.0 0 0.0 1.5 5.2 2
12/09/2019 0:50 10.4 94 0.0 0 0.0 1.1 3.9 28
12/09/2019 1:00 10.4 94 0.0 0 0.0 1.5 5.3 351
12/09/2019 1:10 10.4 94 0.0 0 0.0 1.6 5.7 349
12/09/2019 1:20 10.4 95 0.0 0 0.0 1.0 3.6 9
12/09/2019 1:30 10.3 95 0.0 0 0.0 1.5 5.5 352
12/09/2019 1:40 10.2 93 0.0 0 0.0 1.8 6.3 359
12/09/2019 1:50 10.2 93 0.0 0 0.0 2.1 7.6 10
12/09/2019 2:00 10.2 93 0.0 0 0.0 2.2 7.8 5
12/09/2019 2:10 10.2 94 0.0 0 0.0 1.2 4.4 347
12/09/2019 2:20 10.2 94 0.0 0 0.0 1.1 4.1 0
12/09/2019 2:30 10.1 94 0.0 0 0.0 1.1 3.9 8
12/09/2019 2:40 10.1 95 0.0 0 0.0 1.5 5.3 319
12/09/2019 2:50 10.2 95 0.0 0 0.0 1.1 3.9 5
12/09/2019 3:00 10.1 95 0.0 0 0.0 1.3 4.5 347
12/09/2019 3:10 10.1 94 0.0 0 0.0 1.3 4.8 330
12/09/2019 3:20 10.1 94 0.0 0 0.0 1.6 5.6 330
12/09/2019 3:30 10.0 94 0.0 0 0.0 1.8 6.4 347
12/09/2019 3:40 10.0 94 0.0 0 0.0 1.8 6.3 347
12/09/2019 3:50 9.9 94 0.0 0 0.0 2.3 8.4 354
12/09/2019 4:00 9.9 95 0.0 0 0.0 2.3 8.2 0
12/09/2019 4:10 9.9 95 0.0 0 0.0 2.2 7.8 356
12/09/2019 4:20 9.9 95 0.0 0 0.0 2.4 8.8 324
12/09/2019 4:30 10.0 94 0.0 0 0.0 2.6 9.3 6
12/09/2019 4:40 10.0 93 0.0 0 0.0 2.1 7.6 358
12/09/2019 4:50 10.0 93 0.0 0 0.0 1.9 6.9 352
12/09/2019 5:00 9.9 93 0.0 0 0.0 2.1 7.4 349
12/09/2019 5:10 9.8 93 0.0 0 0.0 2.4 8.7 354
12/09/2019 5:20 9.7 94 0.0 0 0.0 2.2 7.7 1
12/09/2019 5:30 9.7 94 0.0 0 0.0 2.0 7.2 5
12/09/2019 5:40 9.6 94 0.0 0 0.0 2.0 7.0 359
12/09/2019 5:50 9.7 94 0.0 0 0.0 2.0 7.1 6
12/09/2019 6:00 9.7 94 3.1 0 0.0 1.5 5.3 11
12/09/2019 6:10 9.7 94 15.5 0 0.0 1.8 6.5 349
12/09/2019 6:20 9.8 94 37.0 210 0.0 2.1 7.5 2
12/09/2019 6:30 9.9 94 45.8 104 0.0 1.3 4.6 356
12/09/2019 6:40 9.9 94 43.1 0 0.0 1.5 5.5 4
12/09/2019 6:50 10.0 94 63.0 0 0.0 1.2 4.4 40
12/09/2019 7:00 10.0 94 102.9 124 0.0 1.8 6.3 53
12/09/2019 7:10 10.2 93 151.9 416 0.0 1.9 6.8 21
12/09/2019 7:20 10.5 92 234.9 570 0.0 1.9 6.7 356
12/09/2019 7:30 11.0 89 278.0 600 0.0 1.5 5.3 343
12/09/2019 7:40 11.3 87 302.3 600 0.0 1.5 5.4 340
12/09/2019 7:50 11.3 86 333.6 600 0.0 1.9 6.7 321
12/09/2019 8:00 11.4 85 365.2 600 0.0 2.3 8.2 329
12/09/2019 8:10 11.6 84 396.6 600 0.0 2.2 7.7 325
12/09/2019 8:20 11.6 86 428.0 600 0.0 1.7 6.2 335
12/09/2019 8:30 12.1 84 458.7 600 0.0 1.6 5.8 311
12/09/2019 8:40 12.5 83 488.4 600 0.0 2.1 7.5 314
12/09/2019 8:50 12.5 82 518.3 600 0.0 2.1 7.5 320
12/09/2019 9:00 12.9 81 545.3 600 0.0 2.4 8.6 315
12/09/2019 9:10 13.3 80 574.0 600 0.0 1.6 5.9 305
12/09/2019 9:20 13.7 78 599.7 600 0.0 1.7 6.2 304
12/09/2019 9:30 13.9 78 623.9 600 0.0 2.4 8.7 309
12/09/2019 9:40 14.7 75 647.2 600 0.0 1.1 4.0 297
12/09/2019 9:50 15.2 72 667.6 600 0.0 1.3 4.5 311
12/09/2019 10:00 15.1 72 687.8 600 0.0 1.7 6.1 316
12/09/2019 10:10 15.0 75 706.4 600 0.0 2.0 7.1 316
12/09/2019 10:20 15.2 74 724.8 600 0.0 2.0 7.3 314
12/09/2019 10:30 15.7 73 742.4 600 0.0 1.9 6.8 315
12/09/2019 10:40 15.9 72 755.8 600 0.0 2.0 7.2 315
12/09/2019 10:50 16.0 72 767.5 600 0.0 1.8 6.6 321
12/09/2019 11:00 16.5 71 778.8 600 0.0 1.9 6.7 324
12/09/2019 11:10 16.6 69 788.3 600 0.0 2.2 8.1 315
12/09/2019 11:20 17.0 69 796.3 600 0.0 1.8 6.5 331
12/09/2019 11:30 17.4 68 803.0 600 0.0 1.7 6.0 331
12/09/2019 11:40 17.8 68 809.0 600 0.0 1.5 5.2 324
12/09/2019 11:50 18.0 67 814.0 600 0.0 1.6 5.8 329
12/09/2019 12:00 18.3 66 816.0 600 0.0 2.1 7.7 323
12/09/2019 12:10 18.5 66 818.0 600 0.0 1.9 6.8 312
12/09/2019 12:20 18.5 65 818.0 600 0.0 2.0 7.2 320
12/09/2019 12:30 18.8 65 815.0 600 0.0 2.1 7.5 314
12/09/2019 12:40 19.1 64 810.0 600 0.0 2.3 8.4 316
12/09/2019 12:50 19.1 66 802.0 600 0.0 2.5 8.8 316
12/09/2019 13:00 19.0 66 794.4 600 0.0 2.3 8.3 319
12/09/2019 13:10 19.1 66 786.8 600 0.0 2.5 9.1 314
12/09/2019 13:20 19.1 67 776.9 600 0.0 2.2 8.1 320
12/09/2019 13:30 19.2 66 766.3 600 0.0 2.3 8.4 320
12/09/2019 13:40 19.2 66 753.3 600 0.0 2.2 8.0 323
12/09/2019 13:50 19.1 66 738.0 600 0.0 2.1 7.6 324
12/09/2019 14:00 19.1 65 721.5 600 0.0 2.4 8.7 328
12/09/2019 14:10 19.2 65 703.1 600 0.0 2.1 7.7 324
12/09/2019 14:20 19.0 66 684.3 600 0.0 2.3 8.1 321
12/09/2019 14:30 18.9 67 663.7 600 0.0 2.5 9.0 326
12/09/2019 14:40 19.0 67 642.4 600 0.0 2.1 7.6 315
12/09/2019 14:50 19.0 67 618.3 600 0.0 2.2 7.8 328
12/09/2019 15:00 19.0 67 592.6 600 0.0 2.4 8.7 319
12/09/2019 15:10 19.0 67 566.3 600 0.0 2.5 8.9 317
12/09/2019 15:20 18.8 67 540.3 600 0.0 2.5 9.0 326
12/09/2019 15:30 18.9 68 511.2 600 0.0 1.8 6.6 326
12/09/2019 15:40 18.8 68 482.0 600 0.0 1.9 6.9 323
12/09/2019 15:50 18.8 69 452.1 600 0.0 2.2 7.8 337
12/09/2019 16:00 18.7 69 421.4 600 0.0 1.5 5.3 333
12/09/2019 16:10 18.8 68 389.1 600 0.0 1.8 6.4 349
12/09/2019 16:20 18.7 69 357.0 600 0.0 1.7 6.2 350
12/09/2019 16:30 18.9 68 324.0 600 0.0 1.5 5.3 356
12/09/2019 16:40 18.5 69 291.2 600 0.0 2.1 7.4 356
12/09/2019 16:50 18.3 70 257.3 600 0.0 1.9 6.8 337
12/09/2019 17:00 18.1 71 224.7 600 0.0 1.8 6.3 338
12/09/2019 17:10 17.9 72 193.1 600 0.0 2.0 7.1 349
12/09/2019 17:20 17.8 73 161.9 600 0.0 1.8 6.4 5
12/09/2019 17:30 17.5 74 131.0 600 0.0 1.6 5.8 355
12/09/2019 17:40 17.3 75 101.2 600 0.0 1.7 5.9 348
12/09/2019 17:50 16.9 76 72.7 600 0.0 2.4 8.6 355
12/09/2019 18:00 16.4 79 41.7 452 0.0 1.6 5.9 1
12/09/2019 18:10 16.1 81 0.0 0 0.0 2.0 7.3 23
12/09/2019 18:20 15.9 83 0.0 0 0.0 1.8 6.5 11
12/09/2019 18:30 15.5 85 0.0 0 0.0 1.5 5.5 13
12/09/2019 18:40 15.2 86 0.0 0 0.0 1.5 5.4 8
12/09/2019 18:50 14.9 88 0.0 0 0.0 1.6 5.6 19
12/09/2019 19:00 14.7 89 0.0 0 0.0 1.7 6.1 38
12/09/2019 19:10 14.5 90 0.0 0 0.0 1.7 6.1 45
12/09/2019 19:20 14.3 91 0.0 0 0.0 1.6 5.8 54
12/09/2019 19:30 14.3 91 0.0 0 0.0 1.5 5.4 54
12/09/2019 19:40 14.2 92 0.0 0 0.0 1.5 5.5 60
12/09/2019 19:50 14.1 93 0.0 0 0.0 1.4 5.1 60
12/09/2019 20:00 14.0 93 0.0 0 0.0 1.9 6.8 62
12/09/2019 20:10 13.9 93 0.0 0 0.0 1.1 4.0 96
12/09/2019 20:20 13.9 93 0.0 0 0.0 1.5 5.3 66
12/09/2019 20:30 14.0 93 0.0 0 0.0 1.8 6.5 59
12/09/2019 20:40 13.9 94 0.0 0 0.0 1.7 6.2 61
12/09/2019 20:50 13.8 94 0.0 0 0.0 1.8 6.6 44
12/09/2019 21:00 13.7 94 0.0 0 0.0 2.0 7.3 27
12/09/2019 21:10 13.6 94 0.0 0 0.0 2.1 7.5 33
12/09/2019 21:20 13.5 94 0.0 0 0.0 1.6 5.8 44
12/09/2019 21:30 13.5 93 0.0 0 0.0 1.8 6.5 23
12/09/2019 21:40 13.4 93 0.0 0 0.0 2.6 9.5 355
12/09/2019 21:50 13.2 94 0.0 0 0.0 2.2 8.0 340
12/09/2019 22:00 12.9 94 0.0 0 0.0 1.3 4.6 318
12/09/2019 22:10 12.8 94 0.0 0 0.0 1.5 5.5 329
12/09/2019 22:20 12.7 93 0.0 0 0.0 1.6 5.6 335
12/09/2019 22:30 12.9 91 0.0 0 0.0 1.4 5.1 309
12/09/2019 22:40 13.1 90 0.0 0 0.0 2.0 7.1 312
12/09/2019 22:50 13.2 88 0.0 0 0.0 1.8 6.3 330
12/09/2019 23:00 13.1 87 0.0 0 0.0 1.9 6.7 329
12/09/2019 23:10 13.1 87 0.0 0 0.0 2.2 7.9 332
12/09/2019 23:20 13.0 86 0.0 0 0.0 1.8 6.4 309
12/09/2019 23:30 13.0 86 0.0 0 0.0 2.1 7.4 330
12/09/2019 23:40 12.9 85 0.0 0 0.0 2.3 8.3 324
12/09/2019 23:50 12.9 85 0.0 0 0.0 2.0 7.3 317
Anterior Página 1 de 1 Siguiente

NOTA: Tipo de datos según el color:
   - Valores diarios o 10 minutos correctos
   - Valores diarios calculados a partir de un número de datos 10 minutos menor que 144 y mayor que 120, o de un número de datos semihorarios menor que 48 y mayor que 40 (caso de las estaciones de Riegos de Navarra y del MARM)
   - Valores diez minutos estimados


Contacto        Enlaces        Aviso legal